メインページ
METAR-TAF:

METAR-TAF

空港 :

アルマトイ, カザフスタン

アルマトイ国際空港

緯度: 43-14N, 経度: 076-56E, 海抜: 847m

現時点の気象観測

当レポートは32分前の16:00(UTC)に作成
の風 4kt、東/南東から南西の間で変化する
気温 23°C
湿度 50%
気圧 1006 hPa
視程10km以上
高度5000ftの雲は散在している, 積乱雲.
高度10000ftの千切れ雲あり

METAR: UAAA 221600Z 17002MPS 110V220 9999 SCT050CB BKN100 23/12 Q1006 R23R/CLRD65 NOSIG

時間: 22:32 (16:32 UTC)

予報

当レポートは5時間32分前の11:00(UTC)に作成
予報は22日の 12時(UTC)から 23日の 12時(UTC)まで有効
南/南東の風 10kt
視程10km以上
高度5000ftの雲は散在している, 積乱雲.
高度10000ftの千切れ雲あり
22日の 12時(UTC)から 22日の 18時(UTC)まで一時的に
激しい雷雨, 小雨
23日の 05時(UTC)から 23日の 06時(UTC)まで徐々に
西/南西の風 12kt
高度5000ftの千切れ雲あり, 積乱雲.
高度10000ftの千切れ雲あり
確率 40% :
23日の 06時(UTC)から 23日の 08時(UTC)まで一時的に
激しい雷雨, 小雨
23日の 08時(UTC)から 23日の 12時(UTC)まで一時的に
変向風 25kt
視程: 3000m
高度3000ftの千切れ雲あり, 積乱雲.
高度10000ftの千切れ雲あり
激しい雷雨, 雨, スコール

TAF: UAAA 221100Z 2212/2312 16005MPS 9999 SCT050CB BKN100 TX36/2309Z TN19/2301Z TEMPO 2212/2218 -TSRA BECMG 2305/2306 24006MPS BKN050CB BKN100 PROB40 TEMPO 2306/2308 -TSRA TEMPO 2308/2312 VRB13MPS 3000 TSRA SQ BKN030CB BKN100

4,000以上の空港の気象観測と天気予報(METAR報とTAF報)

利用可能な観測所は地図上に黄色い丸と赤い丸で示す。

丸の上にカーソルを重ねると観測所名を参照できる。

次にクリックすると気象観測と天気予報を参照できる。

マップの切り替え:黒色「×」印の緑ボタンをクリックして拡大、「-」印の緑ボタンをクリックして縮小、緑色の三角印をクリックして隣りの地図に切り替え


METAR-TAF: